Time;durP1;ratioP1;P1;durP2;ratioP2;P2;SDS_P1;SDS_P2;PMS_P1;PMS_P2;Temp;Humidity;BMP_temperature;BMP_pressure;BME280_temperature;BME280_humidity;BME280_pressure;Samples;Min_cycle;Max_cycle;Signal;HPM_P1;HPM_P2
2021/12/31 11:56:56;;;;;;;61.58;26.45;;;10.80;88.20;;;;;;5088120;27;20982;-70
2021/12/31 11:59:51;;;;;;;51.83;24.55;;;10.60;90.60;;;;;;5039780;28;20127;-70
2021/12/31 12:02:20;;;;;;;54.88;17.65;;;11.00;94.70;;;;;;5022520;28;20049;-70
2021/12/31 12:05:11;;;;;;;44.00;17.85;;;11.30;97.70;;;;;;5060046;28;20129;-70
2021/12/31 12:07:56;;;;;;;26.70;14.88;;;11.70;98.20;;;;;;5060016;28;20034;-70
2021/12/31 12:10:27;;;;;;;30.02;13.32;;;12.00;97.60;;;;;;5028007;28;20487;-70
2021/12/31 12:12:57;;;;;;;28.55;11.98;;;12.30;96.90;;;;;;5044729;28;20412;-70
2021/12/31 12:15:41;;;;;;;31.38;15.52;;;12.60;94.70;;;;;;5029076;28;20072;-70
2021/12/31 12:18:09;;;;;;;24.80;14.02;;;13.00;92.20;;;;;;5061096;28;20052;-70
2021/12/31 12:20:37;;;;;;;30.90;13.93;;;13.30;91.00;;;;;;5029060;28;20042;-70
2021/12/31 12:23:12;;;;;;;29.35;13.32;;;13.40;89.00;;;;;;5059999;28;20021;-70
2021/12/31 12:25:40;;;;;;;32.70;17.55;;;13.50;87.50;;;;;;5028822;28;20117;-70
2021/12/31 12:28:10;;;;;;;22.38;12.73;;;13.60;86.20;;;;;;5051227;28;20113;-70
2021/12/31 12:31:04;;;;;;;19.15;10.27;;;13.70;84.80;;;;;;5060442;28;20080;-70
2021/12/31 12:33:31;;;;;;;19.58;10.55;;;13.70;84.10;;;;;;5056413;28;20450;-70
2021/12/31 12:35:59;;;;;;;;;;;14.30;82.20;;;;;;5020977;28;20450;-70
2021/12/31 12:38:30;;;;;;;25.98;14.13;;;14.50;82.20;;;;;;5040813;28;20286;-70
2021/12/31 12:41:00;;;;;;;19.17;11.10;;;14.60;79.30;;;;;;5050249;28;20438;-70
2021/12/31 12:44:23;;;;;;;21.90;14.50;;;14.60;77.70;;;;;;5028565;28;20398;-70
2021/12/31 12:47:08;;;;;;;21.73;12.88;;;14.40;78.60;;;;;;5028507;28;20045;-70
2021/12/31 12:49:35;;;;;;;20.75;12.75;;;14.50;77.80;;;;;;5053547;28;20041;-70
2021/12/31 12:52:19;;;;;;;14.27;8.73;;;15.20;74.20;;;;;;5061852;28;20041;-70
2021/12/31 12:54:46;;;;;;;13.95;9.07;;;15.00;72.40;;;;;;5026212;28;20057;-70
2021/12/31 12:57:12;;;;;;;14.20;8.93;;;15.10;72.70;;;;;;5056042;28;20027;-70
2021/12/31 12:59:38;;;;;;;17.83;10.30;;;15.40;71.70;;;;;;5025313;28;20041;-70
2021/12/31 13:02:04;;;;;;;14.05;8.63;;;16.50;68.20;;;;;;5039659;28;20046;-69
2021/12/31 13:04:30;;;;;;;14.20;8.40;;;16.70;65.10;;;;;;5058339;28;20033;-70
2021/12/31 13:07:02;;;;;;;17.75;10.27;;;16.40;65.20;;;;;;5021141;28;20108;-70
2021/12/31 13:09:47;;;;;;;17.60;9.75;;;15.70;66.60;;;;;;5046800;28;20041;-69
2021/12/31 13:12:17;;;;;;;17.65;11.07;;;15.10;68.30;;;;;;5012335;28;20038;-70
2021/12/31 13:14:45;;;;;;;15.85;9.45;;;15.00;68.80;;;;;;5040452;28;20041;-69
2021/12/31 13:17:11;;;;;;;19.63;11.02;;;15.50;67.90;;;;;;5046437;28;20428;-69
2021/12/31 13:19:38;;;;;;;18.92;11.07;;;15.40;66.60;;;;;;5011056;28;20034;-70
2021/12/31 13:22:08;;;;;;;26.75;11.75;;;15.40;65.90;;;;;;5014669;28;20073;-70
2021/12/31 13:24:35;;;;;;;24.85;11.20;;;15.40;65.20;;;;;;5006568;28;20100;-70
2021/12/31 13:27:05;;;;;;;20.17;12.02;;;15.50;64.50;;;;;;4997199;28;20495;-70
2021/12/31 13:30:00;;;;;;;20.58;11.73;;;15.20;64.80;;;;;;5003970;28;20046;-70
2021/12/31 13:32:38;;;;;;;20.30;10.82;;;15.10;65.20;;;;;;5046537;28;20087;-70
2021/12/31 13:35:07;;;;;;;22.63;11.45;;;15.80;62.90;;;;;;5046400;28;20030;-70
2021/12/31 13:37:59;;;;;;;19.50;11.15;;;16.30;59.90;;;;;;5046281;28;20034;-70
2021/12/31 13:40:25;;;;;;;20.38;10.43;;;15.90;61.60;;;;;;5041469;28;20040;-70
2021/12/31 13:43:10;;;;;;;23.33;11.63;;;16.30;60.30;;;;;;5014485;28;20034;-70
2021/12/31 13:45:43;;;;;;;17.00;9.88;;;16.80;57.60;;;;;;5010235;28;20049;-70
2021/12/31 13:48:13;;;;;;;18.60;10.50;;;16.40;57.10;;;;;;5046344;28;20487;-69
2021/12/31 13:50:41;;;;;;;20.05;10.00;;;15.90;57.50;;;;;;5014494;28;20431;-70
2021/12/31 13:53:07;;;;;;;18.15;10.27;;;15.40;59.50;;;;;;5041110;28;20042;-70
2021/12/31 13:55:35;;;;;;;17.23;9.60;;;15.50;60.10;;;;;;5011824;28;20058;-70
2021/12/31 13:58:04;;;;;;;16.90;9.32;;;15.00;60.70;;;;;;5002429;28;20438;-69
2021/12/31 14:00:34;;;;;;;15.57;9.57;;;14.70;61.80;;;;;;5046013;28;20038;-70
2021/12/31 14:03:19;;;;;;;17.15;9.93;;;14.80;62.10;;;;;;5045983;28;20041;-69
2021/12/31 14:06:14;;;;;;;12.95;8.13;;;15.20;60.50;;;;;;5014286;28;20096;-69
2021/12/31 14:08:43;;;;;;;16.13;9.82;;;14.90;60.80;;;;;;5045743;28;20088;-69
2021/12/31 14:11:10;;;;;;;18.25;10.10;;;14.50;62.10;;;;;;5014209;28;20506;-70
2021/12/31 14:13:41;;;;;;;16.15;9.60;;;14.30;63.30;;;;;;5014083;28;20036;-69
2021/12/31 14:16:08;;;;;;;16.05;9.00;;;14.20;62.70;;;;;;5012448;28;20037;-69
2021/12/31 14:18:34;;;;;;;15.70;9.20;;;13.70;64.40;;;;;;5012925;28;20034;-69
2021/12/31 14:21:00;;;;;;;18.20;10.15;;;13.30;65.80;;;;;;5045680;28;20038;-70
2021/12/31 14:23:26;;;;;;;;;;;12.90;67.10;;;;;;5046075;28;20038;-70
2021/12/31 14:25:53;;;;;;;16.27;9.50;;;12.80;67.90;;;;;;5045498;28;19927;-69
2021/12/31 14:28:19;;;;;;;19.13;9.15;;;12.70;67.80;;;;;;5045314;28;20041;-70
2021/12/31 14:30:46;;;;;;;23.25;11.85;;;12.50;68.40;;;;;;5013394;28;20487;-69
2021/12/31 14:33:13;;;;;;;18.40;10.50;;;12.30;69.20;;;;;;5045380;28;20153;-69
2021/12/31 14:35:41;;;;;;;25.13;14.55;;;12.10;69.90;;;;;;5013634;28;20080;-69
2021/12/31 14:38:09;;;;;;;19.13;12.23;;;11.90;70.30;;;;;;5005908;28;20033;-69
2021/12/31 14:40:37;;;;;;;25.20;15.63;;;11.70;70.70;;;;;;5003681;28;20069;-69
2021/12/31 14:43:04;;;;;;;26.35;14.50;;;12.00;69.50;;;;;;5012038;28;20026;-69
2021/12/31 14:45:31;;;;;;;29.65;14.43;;;12.00;69.30;;;;;;5023013;28;20041;-69
2021/12/31 14:48:00;;;;;;;38.33;17.42;;;12.20;69.30;;;;;;5054354;28;20040;-69
2021/12/31 14:50:26;;;;;;;24.23;15.45;;;12.20;68.50;;;;;;5013255;28;20463;-69
2021/12/31 14:52:54;;;;;;;;;;;12.10;68.90;;;;;;5047710;28;20037;-70
2021/12/31 14:55:22;;;;;;;24.33;14.60;;;11.90;69.60;;;;;;5006701;28;19921;-69
2021/12/31 14:57:50;;;;;;;32.58;15.40;;;11.70;70.30;;;;;;5011390;28;20038;-69
2021/12/31 15:00:19;;;;;;;29.08;18.65;;;11.60;70.90;;;;;;5006057;28;20038;-70
2021/12/31 15:02:46;;;;;;;24.17;13.88;;;11.40;71.20;;;;;;5040113;28;20418;-70
2021/12/31 15:05:12;;;;;;;17.38;11.43;;;11.20;71.80;;;;;;5005994;28;20037;-70
2021/12/31 15:07:39;;;;;;;23.63;11.10;;;11.00;71.60;;;;;;5005425;28;20113;-69
2021/12/31 15:10:08;;;;;;;22.15;13.07;;;10.80;71.90;;;;;;4994936;28;20064;-70
2021/12/31 15:12:35;;;;;;;21.60;13.43;;;10.70;73.20;;;;;;5010587;28;20038;-69
2021/12/31 15:15:01;;;;;;;22.05;13.45;;;10.50;73.60;;;;;;5044458;28;20472;-69
2021/12/31 15:17:28;;;;;;;23.95;14.25;;;10.50;74.20;;;;;;5059852;28;20030;-70
2021/12/31 15:19:56;;;;;;;27.50;13.13;;;10.30;74.30;;;;;;5000072;28;20064;-70
2021/12/31 15:22:23;;;;;;;26.65;14.55;;;10.10;74.50;;;;;;5006627;28;20065;-69
2021/12/31 15:24:49;;;;;;;27.80;11.95;;;9.90;74.60;;;;;;5043536;28;20495;-69
2021/12/31 15:27:17;;;;;;;;;;;9.80;75.10;;;;;;5012875;28;20122;-69
2021/12/31 15:29:48;;;;;;;25.17;10.55;;;9.60;74.90;;;;;;5010451;28;19921;-69
2021/12/31 15:32:16;;;;;;;16.58;9.40;;;9.50;75.70;;;;;;5012058;28;20458;-69
2021/12/31 15:34:42;;;;;;;19.42;10.55;;;9.40;76.10;;;;;;5043439;28;20038;-69
2021/12/31 15:37:08;;;;;;;;;;;9.30;76.10;;;;;;5044583;28;20117;-69
2021/12/31 15:39:36;;;;;;;20.73;9.85;;;9.10;76.20;;;;;;5060294;28;20005;-69
2021/12/31 15:42:03;;;;;;;21.23;10.73;;;9.00;76.30;;;;;;5011888;28;20037;-69
2021/12/31 15:44:29;;;;;;;18.40;10.55;;;8.90;76.00;;;;;;5043305;28;20431;-70
2021/12/31 15:46:55;;;;;;;;;;;8.80;76.80;;;;;;5044176;28;20048;-69
2021/12/31 15:49:21;;;;;;;50.35;13.25;;;8.70;77.00;;;;;;5044108;28;19917;-69
2021/12/31 15:51:48;;;;;;;;;;;8.60;77.10;;;;;;5051534;28;20034;-69
2021/12/31 15:54:15;;;;;;;23.40;13.55;;;8.40;77.00;;;;;;5010969;28;19964;-70
2021/12/31 15:56:41;;;;;;;;;;;8.30;76.80;;;;;;5012049;28;20042;-69
2021/12/31 15:59:07;;;;;;;25.33;14.45;;;8.30;77.50;;;;;;5008600;28;19928;-70
2021/12/31 16:01:33;;;;;;;;;;;8.10;77.10;;;;;;5012144;28;20038;-70
2021/12/31 16:03:59;;;;;;;20.55;11.40;;;8.00;77.10;;;;;;5043282;28;19914;-69
2021/12/31 16:06:25;;;;;;;;;;;8.00;77.90;;;;;;5043962;28;20060;-68
2021/12/31 16:08:54;;;;;;;20.08;12.60;;;7.90;77.50;;;;;;5001769;28;20274;-69
2021/12/31 16:11:40;;;;;;;26.90;15.70;;;7.80;77.40;;;;;;5011782;28;20034;-70
2021/12/31 16:14:06;;;;;;;27.55;17.63;;;7.70;78.30;;;;;;5010069;28;20042;-69
2021/12/31 16:16:32;;;;;;;24.95;12.00;;;7.60;77.90;;;;;;5009634;28;20140;-69
2021/12/31 16:18:58;;;;;;;18.27;10.65;;;7.60;78.50;;;;;;4999199;28;20086;-69
2021/12/31 16:21:25;;;;;;;15.48;9.73;;;7.50;78.50;;;;;;5006314;28;20046;-69
2021/12/31 16:23:51;;;;;;;18.65;11.93;;;7.40;78.50;;;;;;5011352;28;20088;-69
2021/12/31 16:26:17;;;;;;;30.70;17.92;;;7.40;78.60;;;;;;5026450;28;20394;-69
2021/12/31 16:28:43;;;;;;;55.72;22.83;;;7.30;78.80;;;;;;5037684;28;20035;-69
2021/12/31 16:31:10;;;;;;;84.13;27.50;;;7.30;78.90;;;;;;5011035;28;20092;-69
2021/12/31 16:33:36;;;;;;;;;;;7.20;78.70;;;;;;5042304;28;20038;-69
2021/12/31 16:36:03;;;;;;;100.72;43.40;;;7.00;78.10;;;;;;5026526;28;20336;-69
2021/12/31 16:38:31;;;;;;;93.18;46.92;;;6.90;78.80;;;;;;5042286;28;20037;-69
2021/12/31 16:40:57;;;;;;;66.70;36.63;;;6.80;79.10;;;;;;4997540;28;20038;-69
2021/12/31 16:43:23;;;;;;;;;;;6.70;78.80;;;;;;5026349;28;20569;-69
2021/12/31 16:45:53;;;;;;;56.92;33.35;;;6.70;79.40;;;;;;5004506;28;19922;-69
2021/12/31 16:48:20;;;;;;;43.25;27.27;;;6.70;79.40;;;;;;5045586;28;20112;-69
2021/12/31 16:50:46;;;;;;;45.30;25.63;;;6.60;79.50;;;;;;5015258;28;20049;-69
2021/12/31 16:53:12;;;;;;;;;;;6.50;79.70;;;;;;5015691;28;20045;-69
2021/12/31 16:55:39;;;;;;;45.33;27.05;;;6.60;79.60;;;;;;5062896;28;19921;-69
2021/12/31 16:58:05;;;;;;;46.55;25.13;;;6.50;79.70;;;;;;5015051;28;20038;-69
2021/12/31 17:00:31;;;;;;;53.30;25.17;;;6.50;79.90;;;;;;5014746;28;20038;-69
2021/12/31 17:02:57;;;;;;;46.85;26.00;;;6.40;79.80;;;;;;5047088;28;20061;-69
2021/12/31 17:05:24;;;;;;;42.15;24.63;;;6.40;79.80;;;;;;5046535;28;20058;-69
2021/12/31 17:07:50;;;;;;;35.60;21.95;;;6.30;79.00;;;;;;5046253;28;20038;-69
2021/12/31 17:10:20;;;;;;;36.85;22.10;;;6.30;79.90;;;;;;5013436;28;20399;-69
2021/12/31 17:12:49;;;;;;;40.28;24.48;;;6.20;79.70;;;;;;5048160;28;20046;-68
2021/12/31 17:15:17;;;;;;;45.40;25.10;;;6.10;79.70;;;;;;5045262;28;20030;-69
2021/12/31 17:17:43;;;;;;;58.60;32.92;;;6.00;79.50;;;;;;5014234;28;20076;-70
2021/12/31 17:20:11;;;;;;;50.55;28.20;;;6.00;79.70;;;;;;5046037;28;20046;-69
2021/12/31 17:22:38;;;;;;;57.47;29.10;;;5.90;79.50;;;;;;5029554;28;20038;-69
2021/12/31 17:25:06;;;;;;;49.95;27.55;;;5.80;79.00;;;;;;5045902;28;20030;-69
2021/12/31 17:27:32;;;;;;;53.88;27.45;;;5.80;79.60;;;;;;5035674;28;20036;-68
2021/12/31 17:29:59;;;;;;;48.72;27.75;;;5.70;79.40;;;;;;5037822;28;20075;-69
2021/12/31 17:32:24;;;;;;;;;;;5.80;80.10;;;;;;5013244;28;20042;-69
2021/12/31 17:34:52;;;;;;;53.13;28.10;;;5.70;80.00;;;;;;5045722;28;19921;-69
2021/12/31 17:37:19;;;;;;;80.18;36.95;;;5.70;80.10;;;;;;5014251;28;20048;-69
2021/12/31 17:39:46;;;;;;;62.17;30.58;;;5.60;80.10;;;;;;5045714;28;20034;-69
2021/12/31 17:42:12;;;;;;;;;;;5.50;79.70;;;;;;5022911;28;20395;-69
2021/12/31 17:44:38;;;;;;;73.38;35.63;;;5.50;79.80;;;;;;5014677;28;20424;-69
2021/12/31 17:47:04;;;;;;;;;;;5.50;81.40;;;;;;5013214;28;20057;-69
2021/12/31 17:49:30;;;;;;;88.72;43.78;;;5.30;80.00;;;;;;5045413;28;19922;-68
2021/12/31 17:51:56;;;;;;;66.40;35.15;;;5.30;80.80;;;;;;5054792;28;20044;-68
2021/12/31 17:54:22;;;;;;;74.88;37.42;;;5.20;80.90;;;;;;5045412;28;20038;-69
2021/12/31 17:56:51;;;;;;;74.63;39.80;;;5.20;81.10;;;;;;5014094;28;20053;-69
2021/12/31 17:59:18;;;;;;;73.25;37.17;;;5.20;81.00;;;;;;5044974;28;20034;-69
2021/12/31 18:01:44;;;;;;;100.68;44.80;;;5.20;80.80;;;;;;5045086;28;20050;-68
2021/12/31 18:04:10;;;;;;;;;;;5.20;80.90;;;;;;5033551;28;20134;-69
2021/12/31 18:06:36;;;;;;;72.85;36.45;;;5.20;80.80;;;;;;5003723;28;20401;-69
2021/12/31 18:09:03;;;;;;;81.57;40.42;;;5.20;80.80;;;;;;5045743;28;20058;-69
2021/12/31 18:11:29;;;;;;;87.07;45.65;;;5.10;81.00;;;;;;5044984;28;20068;-69
2021/12/31 18:13:55;;;;;;;101.00;43.83;;;5.20;80.90;;;;;;5045040;28;20065;-69
2021/12/31 18:16:22;;;;;;;73.45;36.55;;;5.10;80.80;;;;;;5028261;28;20038;-69
2021/12/31 18:18:48;;;;;;;78.10;37.28;;;5.10;80.80;;;;;;5011779;28;20527;-69
2021/12/31 18:21:14;;;;;;;73.32;35.53;;;5.00;80.80;;;;;;5045088;28;20034;-69
2021/12/31 18:23:44;;;;;;;;;;;4.90;80.90;;;;;;5028986;28;20121;-69
2021/12/31 18:26:12;;;;;;;69.05;35.40;;;4.90;81.00;;;;;;5011902;28;19949;-69
2021/12/31 18:28:39;;;;;;;59.88;30.33;;;4.80;80.80;;;;;;5061640;28;20495;-69
2021/12/31 18:31:05;;;;;;;51.10;27.35;;;4.80;80.30;;;;;;5044711;28;20034;-68
2021/12/31 18:33:31;;;;;;;54.28;30.48;;;4.80;80.90;;;;;;5045120;28;20062;-69
2021/12/31 18:35:57;;;;;;;88.78;39.22;;;4.80;81.00;;;;;;5045287;28;20034;-69
2021/12/31 18:38:23;;;;;;;104.72;47.92;;;4.80;81.00;;;;;;5012961;28;20442;-69
2021/12/31 18:40:49;;;;;;;88.85;37.00;;;4.80;80.90;;;;;;5012821;28;20399;-69
2021/12/31 18:43:17;;;;;;;110.90;36.85;;;4.70;80.90;;;;;;5028070;28;20040;-70
2021/12/31 18:45:43;;;;;;;63.28;33.00;;;4.70;80.80;;;;;;5039299;28;20034;-69
2021/12/31 18:48:10;;;;;;;68.65;32.63;;;4.50;80.10;;;;;;5036951;28;20346;-69
2021/12/31 18:50:43;;;;;;;60.33;31.13;;;4.50;80.70;;;;;;5012725;28;20541;-69
2021/12/31 18:53:10;;;;;;;54.03;27.42;;;4.50;80.80;;;;;;5016381;28;20054;-69
2021/12/31 18:55:36;;;;;;;53.38;26.83;;;4.40;80.50;;;;;;5012366;28;20263;-69
2021/12/31 18:58:03;;;;;;;59.83;28.10;;;4.30;80.70;;;;;;4998150;28;20035;-69
2021/12/31 19:00:30;;;;;;;64.47;30.52;;;4.20;80.60;;;;;;5041571;28;20395;-69
2021/12/31 19:02:56;;;;;;;79.07;31.20;;;4.20;80.50;;;;;;5012721;28;20037;-71
2021/12/31 19:05:24;;;;;;;;;;;4.10;80.60;;;;;;5012432;28;20045;-72
2021/12/31 19:07:50;;;;;;;76.68;27.10;;;4.20;80.60;;;;;;5011004;28;19921;-69
2021/12/31 19:10:17;;;;;;;65.93;25.88;;;4.10;80.40;;;;;;5012476;28;20030;-69
2021/12/31 19:12:43;;;;;;;85.00;28.35;;;4.10;80.20;;;;;;5042981;28;20053;-71
2021/12/31 19:15:10;;;;;;;73.10;27.88;;;4.10;79.60;;;;;;5012671;28;20442;-72
2021/12/31 19:17:36;;;;;;;82.20;33.63;;;4.20;79.80;;;;;;5027541;28;20042;-71
2021/12/31 19:20:04;;;;;;;122.95;45.97;;;4.30;79.90;;;;;;5044127;28;20499;-68
2021/12/31 19:22:30;;;;;;;179.65;59.20;;;4.30;79.30;;;;;;5044054;28;20411;-69
2021/12/31 19:24:56;;;;;;;156.75;54.92;;;4.40;79.70;;;;;;5012145;28;20033;-70
2021/12/31 19:27:22;;;;;;;207.07;67.63;;;4.40;79.60;;;;;;5012629;28;20030;-69
2021/12/31 19:29:49;;;;;;;204.88;66.40;;;4.40;79.70;;;;;;5012114;28;20108;-69
2021/12/31 19:32:15;;;;;;;221.80;67.50;;;4.40;79.90;;;;;;5043680;28;20045;-69
2021/12/31 19:34:41;;;;;;;188.25;68.80;;;4.40;79.90;;;;;;5011900;28;20049;-69
2021/12/31 19:37:08;;;;;;;204.77;72.35;;;4.40;80.20;;;;;;5011990;28;20069;-69
2021/12/31 19:39:34;;;;;;;195.85;71.30;;;4.40;79.70;;;;;;5043852;28;20111;-69
2021/12/31 19:42:01;;;;;;;234.10;75.78;;;4.40;80.60;;;;;;5043907;28;20030;-69
2021/12/31 19:44:27;;;;;;;209.80;63.45;;;4.40;80.60;;;;;;5026912;28;20570;-69
2021/12/31 19:46:54;;;;;;;256.70;89.28;;;4.30;80.90;;;;;;5043823;28;20046;-71
2021/12/31 19:49:20;;;;;;;121.15;44.42;;;4.30;82.00;;;;;;5010633;28;20046;-69
2021/12/31 19:51:46;;;;;;;;;;;4.20;81.30;;;;;;5046218;28;20049;-69
2021/12/31 19:54:12;;;;;;;104.28;34.70;;;4.20;81.30;;;;;;5012481;28;19918;-69
2021/12/31 19:56:38;;;;;;;93.45;35.63;;;4.20;81.30;;;;;;5043275;28;20058;-69
2021/12/31 19:59:04;;;;;;;96.38;36.85;;;4.20;81.20;;;;;;5011826;28;20494;-69
2021/12/31 20:01:30;;;;;;;80.38;32.95;;;4.30;81.20;;;;;;5026876;28;20054;-72
2021/12/31 20:03:57;;;;;;;79.85;35.20;;;4.30;81.20;;;;;;5026876;28;20553;-69
2021/12/31 20:06:23;;;;;;;91.93;37.67;;;4.30;81.10;;;;;;5044163;28;20420;-69
2021/12/31 20:08:49;;;;;;;144.10;37.60;;;4.30;81.20;;;;;;5010288;28;20390;-71
2021/12/31 20:11:15;;;;;;;131.35;35.88;;;4.40;81.00;;;;;;5043386;28;20050;-69
2021/12/31 20:13:41;;;;;;;;;;;4.30;80.80;;;;;;5027150;28;20046;-69
2021/12/31 20:16:08;;;;;;;216.15;29.33;;;4.40;81.20;;;;;;5011498;28;19948;-69
2021/12/31 20:18:34;;;;;;;151.40;27.58;;;4.30;81.40;;;;;;5015606;28;20030;-69
2021/12/31 20:21:02;;;;;;;170.13;26.52;;;4.30;81.50;;;;;;5015983;28;20061;-69
2021/12/31 20:23:28;;;;;;;127.32;28.70;;;4.30;81.90;;;;;;5015542;28;20034;-69
2021/12/31 20:25:54;;;;;;;118.68;30.00;;;4.20;81.40;;;;;;5014958;28;20048;-69
2021/12/31 20:28:20;;;;;;;96.78;27.05;;;4.20;82.20;;;;;;5015445;28;20395;-69
2021/12/31 20:30:47;;;;;;;90.03;27.42;;;4.20;82.50;;;;;;5015551;28;20379;-70
2021/12/31 20:33:13;;;;;;;64.95;24.52;;;4.10;82.60;;;;;;5015900;28;20072;-71
2021/12/31 20:35:40;;;;;;;;;;;4.10;82.80;;;;;;5047619;28;20049;-69
2021/12/31 20:38:06;;;;;;;114.13;42.50;;;3.90;82.30;;;;;;5015240;28;19929;-68
2021/12/31 20:40:32;;;;;;;181.85;65.57;;;3.90;82.90;;;;;;5015085;28;20053;-69
2021/12/31 20:42:58;;;;;;;166.57;62.42;;;3.90;83.10;;;;;;5015125;28;20034;-69
2021/12/31 20:45:24;;;;;;;289.75;100.97;;;3.90;83.00;;;;;;5015563;28;20040;-69
2021/12/31 20:47:50;;;;;;;137.00;58.22;;;3.90;83.00;;;;;;5015177;28;20134;-69
2021/12/31 20:50:22;;;;;;;110.63;46.33;;;3.80;83.10;;;;;;5015287;28;20475;-69
2021/12/31 20:52:48;;;;;;;111.40;48.80;;;3.70;84.00;;;;;;5046093;28;20042;-69
2021/12/31 20:55:14;;;;;;;;;;;3.70;83.10;;;;;;5046640;28;20057;-69
2021/12/31 20:57:40;;;;;;;120.75;53.03;;;3.60;82.40;;;;;;5046815;28;19952;-71
2021/12/31 21:00:08;;;;;;;;;;;3.60;83.10;;;;;;5047767;28;20034;-69
2021/12/31 21:02:35;;;;;;;61.60;31.85;;;3.60;82.90;;;;;;5012388;28;19925;-69
2021/12/31 21:05:02;;;;;;;65.63;32.47;;;3.50;83.10;;;;;;5012106;28;20042;-69
2021/12/31 21:07:28;;;;;;;59.25;32.50;;;3.50;82.60;;;;;;5029752;28;20069;-68
2021/12/31 21:09:54;;;;;;;295.80;110.18;;;3.50;83.30;;;;;;5046239;28;20120;-71
2021/12/31 21:12:20;;;;;;;306.85;111.30;;;3.50;83.40;;;;;;5015010;28;20034;-69
2021/12/31 21:14:47;;;;;;;436.52;189.77;;;3.50;83.40;;;;;;5014604;28;20104;-70
2021/12/31 21:17:13;;;;;;;295.92;115.47;;;3.40;82.70;;;;;;5013260;28;20030;-69
2021/12/31 21:19:39;;;;;;;223.60;91.75;;;3.40;83.30;;;;;;5013014;28;20049;-69
2021/12/31 21:22:05;;;;;;;;;;;3.40;83.30;;;;;;5046920;28;20041;-69
2021/12/31 21:24:31;;;;;;;155.05;67.15;;;3.30;83.30;;;;;;5045971;28;20359;-70
2021/12/31 21:26:58;;;;;;;;;;;3.30;83.30;;;;;;5047007;28;20026;-69
2021/12/31 21:29:43;;;;;;;186.93;92.23;;;3.30;82.70;;;;;;5012729;28;19987;-69
2021/12/31 21:32:09;;;;;;;105.50;54.45;;;3.20;82.50;;;;;;5029572;28;20038;-69
2021/12/31 21:34:35;;;;;;;127.15;62.85;;;3.20;82.50;;;;;;5046050;28;20391;-69
2021/12/31 21:37:02;;;;;;;148.48;67.40;;;3.20;83.10;;;;;;5013879;28;20038;-68
2021/12/31 21:39:29;;;;;;;114.82;55.40;;;3.30;83.20;;;;;;5046219;28;20530;-69
2021/12/31 21:41:56;;;;;;;217.50;88.50;;;3.20;83.00;;;;;;5014287;28;20451;-69
2021/12/31 21:44:22;;;;;;;214.43;90.90;;;3.20;83.00;;;;;;5014039;28;20053;-70
2021/12/31 21:46:48;;;;;;;187.48;78.93;;;3.20;82.90;;;;;;5014044;28;20085;-69
2021/12/31 21:49:14;;;;;;;;;;;3.10;83.00;;;;;;5046403;28;20100;-69
2021/12/31 21:51:40;;;;;;;132.05;64.15;;;3.10;83.20;;;;;;5012452;28;19965;-70
2021/12/31 21:54:06;;;;;;;129.65;60.65;;;3.00;83.20;;;;;;5046186;28;20164;-69
2021/12/31 21:56:33;;;;;;;131.70;61.42;;;3.00;83.30;;;;;;5045377;28;20523;-69
2021/12/31 21:59:00;;;;;;;122.95;56.88;;;3.00;83.20;;;;;;5012527;28;20042;-69
2021/12/31 22:01:26;;;;;;;120.63;57.13;;;3.00;83.00;;;;;;5045274;28;20030;-69
2021/12/31 22:03:52;;;;;;;110.70;52.67;;;3.10;83.20;;;;;;5045578;28;20115;-69
2021/12/31 22:06:18;;;;;;;106.65;52.53;;;3.00;83.00;;;;;;5014065;28;20033;-70
2021/12/31 22:08:44;;;;;;;95.05;46.72;;;3.10;83.00;;;;;;5012378;28;20042;-69
2021/12/31 22:11:10;;;;;;;87.97;45.13;;;3.10;82.90;;;;;;5045254;28;20041;-70
2021/12/31 22:13:38;;;;;;;99.63;49.90;;;3.00;82.70;;;;;;5013427;28;20047;-70
2021/12/31 22:16:05;;;;;;;84.85;43.05;;;3.00;82.70;;;;;;5013237;28;20046;-69
2021/12/31 22:18:31;;;;;;;66.38;36.72;;;3.00;82.70;;;;;;4995746;28;20124;-69
2021/12/31 22:20:57;;;;;;;91.32;43.60;;;3.00;82.60;;;;;;5045372;28;20046;-69
2021/12/31 22:23:23;;;;;;;72.00;36.22;;;3.00;82.70;;;;;;5013415;28;20033;-70
2021/12/31 22:25:50;;;;;;;61.53;33.03;;;3.00;82.60;;;;;;5044928;28;20117;-69
2021/12/31 22:28:16;;;;;;;131.27;64.95;;;3.00;82.70;;;;;;5011915;28;20052;-70
2021/12/31 22:30:43;;;;;;;64.55;35.97;;;2.90;82.60;;;;;;5044972;28;20042;-69
2021/12/31 22:33:09;;;;;;;95.63;46.38;;;2.80;82.60;;;;;;5013733;28;20380;-69
2021/12/31 22:35:35;;;;;;;75.35;39.80;;;2.70;82.60;;;;;;5044552;28;20052;-70
2021/12/31 22:38:01;;;;;;;89.53;41.15;;;2.70;82.70;;;;;;5013088;28;20519;-70
2021/12/31 22:40:27;;;;;;;86.38;40.47;;;2.60;82.60;;;;;;5027247;28;20408;-69
2021/12/31 22:42:53;;;;;;;;;;;2.60;82.60;;;;;;5013818;28;20049;-69
2021/12/31 22:45:19;;;;;;;81.05;42.13;;;2.50;82.70;;;;;;5045292;28;19921;-71
2021/12/31 22:47:46;;;;;;;85.43;42.58;;;2.50;82.70;;;;;;5044620;28;20037;-69
2021/12/31 22:50:13;;;;;;;80.68;40.97;;;2.40;82.50;;;;;;5027921;28;20048;-70
2021/12/31 22:52:40;;;;;;;82.05;37.00;;;2.30;82.00;;;;;;5042253;28;20044;-70
2021/12/31 22:55:08;;;;;;;81.07;37.30;;;2.30;82.40;;;;;;5013918;28;20038;-69
2021/12/31 22:57:34;;;;;;;69.43;36.53;;;2.30;82.30;;;;;;5043173;28;20285;-69
2021/12/31 23:00:03;;;;;;;85.50;40.85;;;2.30;82.40;;;;;;5044659;28;20740;-70
2021/12/31 23:02:29;;;;;;;78.72;38.25;;;2.30;82.10;;;;;;5012563;28;20452;-69
2021/12/31 23:04:55;;;;;;;69.68;33.85;;;2.30;82.10;;;;;;5012395;28;20475;-69
2021/12/31 23:07:21;;;;;;;63.53;31.25;;;2.30;82.10;;;;;;5044414;28;20030;-70
2021/12/31 23:09:47;;;;;;;65.80;31.33;;;2.30;82.20;;;;;;5011055;28;20038;-69
2021/12/31 23:12:16;;;;;;;79.70;33.53;;;2.30;82.00;;;;;;5012911;28;20029;-69
2021/12/31 23:14:43;;;;;;;90.40;36.00;;;2.30;81.80;;;;;;5027088;28;20399;-69
2021/12/31 23:17:09;;;;;;;88.93;36.05;;;2.30;81.30;;;;;;5044223;28;20042;-69
2021/12/31 23:19:35;;;;;;;94.28;42.63;;;2.40;81.80;;;;;;5043989;28;20073;-69
2021/12/31 23:22:01;;;;;;;108.07;47.22;;;2.40;81.80;;;;;;5012392;28;20080;-69
2021/12/31 23:24:27;;;;;;;124.28;54.35;;;2.40;82.00;;;;;;5012673;28;20109;-69
2021/12/31 23:26:53;;;;;;;196.93;65.60;;;2.40;82.00;;;;;;5012324;28;20407;-70
2021/12/31 23:29:19;;;;;;;171.43;53.05;;;2.40;81.90;;;;;;5012587;28;20121;-69
2021/12/31 23:31:45;;;;;;;;;;;2.50;82.00;;;;;;5044597;28;20506;-69
2021/12/31 23:34:12;;;;;;;165.35;53.22;;;2.50;82.00;;;;;;5011979;28;19948;-69
2021/12/31 23:36:39;;;;;;;132.15;43.08;;;2.50;81.80;;;;;;5011728;28;20045;-70
2021/12/31 23:39:06;;;;;;;116.50;45.58;;;2.50;81.80;;;;;;5012443;28;20092;-70
2021/12/31 23:44:19;;;;;;;184.07;43.20;;;2.60;81.80;;;;;;5038516;28;20034;-70
2021/12/31 23:47:04;;;;;;;94.72;38.90;;;2.50;81.90;;;;;;5011811;28;20471;-69
2021/12/31 23:49:30;;;;;;;100.47;41.38;;;2.50;82.00;;;;;;5011891;28;20038;-69
2021/12/31 23:51:56;;;;;;;177.32;51.03;;;2.50;82.00;;;;;;5051941;28;20517;-69
2021/12/31 23:54:22;;;;;;;184.85;56.65;;;2.50;82.00;;;;;;5017881;28;20030;-69
2021/12/31 23:56:50;;;;;;;170.23;51.40;;;2.50;82.00;;;;;;5011696;28;20088;-70
2021/12/31 23:59:16;;;;;;;161.63;42.13;;;2.40;81.40;;;;;;5010405;28;20041;-69
